OITM  Sahand  Airport

Maragheh, Iran

Add Bookmark
ICAO OITM
IATA ACP
Type Airport
Status Operational
Latitude
37° 20' 52" N
37.348000
Longitude
46° 7' 40" E
46.127899
Local (GMT +3.5 ) UTC
Dec 8, 2016 03:26 pm Dec 8, 2016 11:56
Sunrise-Sunset Local UTC
Begin Civil Twilight 06:57 am 03:27
Sunrise 07:26 am 03:56
Sunset 05:09 pm 13:39
End Civil Twilight 05:38 pm 14:08
VFR
VFR
MVFR
MVFR
IFR
IFR
LIFR
LIFR
Unknown
No Data

Current Weather

METAR Observed VFR
OITM 081100Z VRB02KT 9999 FEW040 BKN190 01/M05 Q1021 Thu, Dec 8, 2016 @ 11:00 UTC
(56 Minutes ago)
Visual Flight Rules
Wind Visibility Clouds Conditions
Varies at 2 knots (4 kph) 10 km or more
  • Few at 4,000 ft AGL
  • Broken at 19,000 ft AGL
  • No significant weather
Temperatures Readings Precipitation
Current Temp
1°C
34°F
Dewpoint
-5°C
23°F
Humidity 65%
Altimeter 30.15" Hg
Sea Level Pressure 1,021 mb
Field Elevation
1,340 m
4,396 ft
None Recorded
-
-

CheckWX.com is intended as a tool to help pilots better visualize weather data. It is not intended as a substitute for an official weather briefing obtained from a Flight Service Station. CheckWX.com does not meet the FAA requirements for an official pre-flight weather briefing. Therefore, it's important that pilots still call and obtain an official FSS pre-flight weather briefing.

© 2007-2016 CheckWX.com
11:56:18 UTC